Saturday, September 22, 2018, 9:51 AM EDT
Back to Local

K1P1, Plymouth, Plymouth Municipal Airport

Location: Plymouth, NH, United States Lat: 43.779
Local Time: 9:51 AM EDT (13:51 GMT) Lon: -71.754
Time Zone: US/Eastern Elev: 505 ft

Show me the last for .
Show Coded

Time T Td Feel RH Dir Speed Gust Alt SLP Vis Weather Sky Remarks
2018-09-22 09:35 58 44 - 59 280° 12 21 30.08 - 10 BKN048 BKN055 None
2018-09-22 09:15 59 45 - 58 310° 9 20 30.07 - 10 BKN044 OVC050 None
2018-09-22 08:55 60 46 - 58 310° 13 20 30.05 - 10 BKN043 OVC050 None
2018-09-22 08:35 60 45 - 57 310° 10 17 30.03 - 10 BKN043 None
2018-09-22 08:15 60 44 - 55 310° 9 17 30.02 - 10 SCT043 BKN049 BKN060 None
2018-09-22 07:55 61 43 - 52 - Calm - 30.00 - 10 SCT045 BKN060 6-hr Precip Total (8am): 0.11"
24-hr Precip Total (8am): 0.12"
6-hr Min Temp (8am): 59.9°F
6-hr Max Temp (8am): 70.0°F
2018-09-22 07:35 60 43 - 53 330° 7 29 29.97 - 10 CLR None
2018-09-22 07:15 61 45 - 54 300° 18 30 29.95 - 10 CLR None
2018-09-22 06:55 62 49 - 63 310° 14 22 29.93 - 10 CLR None
2018-09-22 06:35 63 51 - 64 320° 13 17 29.90 - 10 CLR None
2018-09-22 06:15 63 52 - 66 300° 7 - 29.89 - 10 SCT060 None
2018-09-22 05:55 64 54 - 69 310° 9 24 29.88 - 10 SCT045 BKN060 None
2018-09-22 05:35 64 55 - 73 290° 3 - 29.85 - 10 SCT038 SCT047 SCT050 None
2018-09-22 05:15 65 56 - 72 260° 5 - 29.82 - 10 CLR None
2018-09-22 04:55 65 59 - 80 280° 6 - 29.82 - 10 SCT027 SCT047 SCT060 1-hr Precip Total: 0.04"
6-hr Precip Total (5am): 0.11"
2018-09-22 04:35 65 63 - 92 270° 5 - 29.81 - 7 -RA SCT025 BKN043 OVC085 1-hr Precip Total: 0.04"
2018-09-22 04:15 65 63 - 93 - Calm - 29.79 - 10 SCT039 SCT050 BKN080 None
2018-09-22 03:55 64 62 - 93 - Calm - 29.78 - 5 BR SCT039 SCT045 None
2018-09-22 03:35 65 63 - 93 - Calm - 29.77 - 7 SCT040 SCT045 SCT060 None
2018-09-22 03:15 66 63 - 92 - Calm - 29.77 - 10 SCT021 SCT026 BKN046 None
2018-09-22 02:55 66 63 - 91 - Calm - 29.78 - 7 SCT021 SCT025 BKN035 1-hr Precip Total: 0.07"
2018-09-22 02:35 67 64 - 89 - Calm - 29.78 - 7 -RA SCT020 BKN042 OVC055 1-hr Precip Total: 0.06"
2018-09-22 02:15 68 64 - 85 320° 6 - 29.78 - 7 RA SCT018 BKN037 OVC055 1-hr Precip Total: 0.06"
2018-09-22 01:55 70 63 - 77 230° 6 - 29.78 - 10 -DZ SCT023 BKN033 OVC055 6-hr Min Temp (2am): 61.3°F
6-hr Max Temp (2am): 70.3°F
2018-09-22 01:35 69 63 - 79 190° 9 - 29.78 - 10 BKN025 OVC034 None
2018-09-22 01:15 66 62 - 84 - Calm - 29.78 - 10 BKN027 OVC036 None
2018-09-22 00:55 68 62 - 80 - Calm - 29.77 - 10 -RA BKN023 BKN029 OVC037 None
2018-09-22 00:35 68 62 - 80 90° 3 - 29.78 - 10 BKN023 BKN030 OVC039 None
2018-09-22 00:15 67 61 - 80 - Calm - 29.79 - 10 OVC023 None
2018-09-21 23:55 66 61 - 81 140° 3 - 29.81 - 10 OVC021 24-hr Min Temp (12am): 56.7°F
24-hr Max Temp (12am): 66.4°F
2018-09-21 23:35 66 60 - 82 - Calm - 29.82 - 10 OVC021 None
2018-09-21 23:15 66 60 - 81 - Calm - 29.84 - 10 OVC019 None
2018-09-21 22:55 66 60 - 80 - Calm - 29.85 - 10 OVC019 None
2018-09-21 22:35 65 59 - 81 190° 3 - 29.85 - 10 OVC019 None
2018-09-21 22:15 64 59 - 84 - Calm - 29.85 - 10 OVC019 None
2018-09-21 21:55 64 58 - 83 - Calm - 29.86 - 10 OVC019 None
2018-09-21 21:35 63 58 - 85 90° 3 - 29.89 - 10 OVC019 None
2018-09-21 21:15 62 57 - 85 - Calm - 29.89 - 10 OVC017 None
2018-09-21 20:55 63 58 - 83 - Calm - 29.89 - 10 OVC017 None
2018-09-21 20:35 62 57 - 83 60° 6 - 29.89 - 10 OVC017 None
2018-09-21 20:15 62 57 - 84 100° 3 - 29.90 - 10 OVC017 None
2018-09-21 19:55 62 57 - 84 80° 8 - 29.91 - 10 OVC017 6-hr Min Temp (8pm): 58.1°F
6-hr Max Temp (8pm): 61.7°F
2018-09-21 19:35 61 56 - 85 70° 7 - 29.91 - 10 OVC015 None
2018-09-21 19:15 60 56 - 87 30° 5 - 29.93 - 10 OVC013 None
2018-09-21 18:55 60 56 - 85 50° 3 - 29.94 - 10 OVC013 None
2018-09-21 18:35 60 56 - 84 50° 3 - 29.95 - 10 OVC013 None
2018-09-21 18:15 60 55 - 84 50° 5 - 29.95 - 10 OVC013 None
2018-09-21 17:55 60 55 - 83 60° 6 - 29.97 - 10 OVC015 None
2018-09-21 17:35 60 55 - 82 40° 5 - 29.98 - 10 OVC015 None
2018-09-21 17:15 59 55 - 85 60° 6 - 29.99 - 10 OVC015 None
2018-09-21 16:55 59 54 - 84 20° 7 - 30.00 - 10 OVC015 None
2018-09-21 16:35 59 54 - 82 - Calm - 30.03 - 10 OVC015 None
2018-09-21 16:15 59 54 - 82 30° 3 - 30.04 - 10 OVC015 None
2018-09-21 15:55 59 53 - 81 60° 3 - 30.06 - 10 OVC017 None
2018-09-21 15:35 59 53 - 80 70° 3 - 30.07 - 10 OVC017 None
2018-09-21 15:15 59 53 - 80 - Calm - 30.08 - 10 OVC017 None
2018-09-21 14:55 58 52 - 80 40° 5 - 30.09 - 10 OVC019 None
2018-09-21 14:35 58 52 - 80 60° 5 - 30.10 - 10 OVC021 None
2018-09-21 14:15 58 52 - 80 50° 3 - 30.11 - 10 OVC021 None
2018-09-21 13:55 58 52 - 80 60° 5 - 30.12 - 10 OVC023 6-hr Precip Total (2pm): 0.01"
6-hr Min Temp (2pm): 56.8°F
6-hr Max Temp (2pm): 58.3°F
2018-09-21 13:35 58 51 - 78 80° 5 - 30.14 - 10 OVC025 None
2018-09-21 13:15 58 51 - 76 60° 3 - 30.15 - 10 OVC029 None
2018-09-21 12:55 58 51 - 76 80° 3 - 30.16 - 10 OVC031 None
2018-09-21 12:35 58 51 - 77 80° 5 - 30.17 - 10 OVC033 None
2018-09-21 12:15 58 51 - 79 80° 5 - 30.17 - 10 OVC035 None
2018-09-21 11:55 58 51 - 77 - Calm - 30.18 - 10 SCT027 OVC035 None
2018-09-21 11:35 58 52 - 80 70° 5 - 30.20 - 10 BKN029 OVC035 None
2018-09-21 11:15 58 52 - 80 100° 5 - 30.21 - 10 OVC031 None
2018-09-21 10:55 58 53 - 82 90° 3 - 30.22 - 10 SCT024 OVC033 6-hr Precip Total (11am): 0.01"
2018-09-21 10:35 57 53 - 85 130° 3 - 30.22 - 10 SCT024 OVC033 None
2018-09-21 10:15 57 53 - 86 100° 5 - 30.23 - 10 -RA SCT023 OVC033 None
2018-09-21 09:55 57 53 - 85 - Calm - 30.24 - 10 SCT023 OVC031 None

Support USWX by starting your Amazon purchase here.